sensor_id;sensor_type;location;lat;lon;timestamp;P1;durP1;ratioP1;P2;durP2;ratioP2
45642;SDS011;31358;46.008;11.144;2024-02-21T00:00:18;2.03;;;0.80;;
45642;SDS011;31358;46.008;11.144;2024-02-21T00:02:44;1.80;;;0.60;;
45642;SDS011;31358;46.008;11.144;2024-02-21T00:05:10;3.50;;;0.75;;
45642;SDS011;31358;46.008;11.144;2024-02-21T00:07:36;3.22;;;0.98;;
45642;SDS011;31358;46.008;11.144;2024-02-21T00:10:01;1.83;;;0.70;;
45642;SDS011;31358;46.008;11.144;2024-02-21T00:12:28;1.38;;;0.70;;
45642;SDS011;31358;46.008;11.144;2024-02-21T00:14:53;2.35;;;0.75;;
45642;SDS011;31358;46.008;11.144;2024-02-21T00:17:19;1.83;;;0.65;;
45642;SDS011;31358;46.008;11.144;2024-02-21T00:19:45;1.88;;;0.60;;
45642;SDS011;31358;46.008;11.144;2024-02-21T00:22:10;1.42;;;0.70;;
45642;SDS011;31358;46.008;11.144;2024-02-21T00:24:36;1.33;;;0.70;;
45642;SDS011;31358;46.008;11.144;2024-02-21T00:27:02;1.20;;;0.60;;
45642;SDS011;31358;46.008;11.144;2024-02-21T00:29:28;1.30;;;0.60;;
45642;SDS011;31358;46.008;11.144;2024-02-21T00:31:53;2.75;;;0.70;;
45642;SDS011;31358;46.008;11.144;2024-02-21T00:34:19;1.75;;;0.70;;
45642;SDS011;31358;46.008;11.144;2024-02-21T00:36:45;1.35;;;0.55;;
45642;SDS011;31358;46.008;11.144;2024-02-21T00:39:10;1.35;;;0.57;;
45642;SDS011;31358;46.008;11.144;2024-02-21T00:41:36;1.52;;;0.50;;
45642;SDS011;31358;46.008;11.144;2024-02-21T00:44:02;2.78;;;0.63;;
45642;SDS011;31358;46.008;11.144;2024-02-21T00:46:30;1.23;;;0.60;;
45642;SDS011;31358;46.008;11.144;2024-02-21T00:48:56;1.67;;;0.43;;
45642;SDS011;31358;46.008;11.144;2024-02-21T00:51:22;1.30;;;0.60;;
45642;SDS011;31358;46.008;11.144;2024-02-21T00:53:47;1.33;;;0.50;;
45642;SDS011;31358;46.008;11.144;2024-02-21T00:56:13;0.38;;;0.25;;
45642;SDS011;31358;46.008;11.144;2024-02-21T00:58:39;1.30;;;0.60;;
45642;SDS011;31358;46.008;11.144;2024-02-21T01:01:04;0.50;;;0.40;;
45642;SDS011;31358;46.008;11.144;2024-02-21T01:03:30;1.80;;;0.63;;
45642;SDS011;31358;46.008;11.144;2024-02-21T01:05:55;2.17;;;0.40;;
45642;SDS011;31358;46.008;11.144;2024-02-21T01:08:21;1.50;;;0.68;;
45642;SDS011;31358;46.008;11.144;2024-02-21T01:10:47;1.50;;;0.55;;
45642;SDS011;31358;46.008;11.144;2024-02-21T01:13:12;2.15;;;0.80;;
45642;SDS011;31358;46.008;11.144;2024-02-21T01:15:39;0.93;;;0.45;;
45642;SDS011;31358;46.008;11.144;2024-02-21T01:18:04;1.45;;;0.60;;
45642;SDS011;31358;46.008;11.144;2024-02-21T01:20:30;3.22;;;1.15;;
45642;SDS011;31358;46.008;11.144;2024-02-21T01:22:56;1.63;;;0.57;;
45642;SDS011;31358;46.008;11.144;2024-02-21T01:25:21;1.52;;;0.60;;
45642;SDS011;31358;46.008;11.144;2024-02-21T01:27:48;1.95;;;0.75;;
45642;SDS011;31358;46.008;11.144;2024-02-21T01:30:14;2.20;;;0.70;;
45642;SDS011;31358;46.008;11.144;2024-02-21T01:32:39;1.25;;;0.55;;
45642;SDS011;31358;46.008;11.144;2024-02-21T01:35:06;2.25;;;0.75;;
45642;SDS011;31358;46.008;11.144;2024-02-21T01:37:32;1.88;;;0.73;;
45642;SDS011;31358;46.008;11.144;2024-02-21T01:39:58;1.80;;;0.70;;
45642;SDS011;31358;46.008;11.144;2024-02-21T01:42:23;1.52;;;0.63;;
45642;SDS011;31358;46.008;11.144;2024-02-21T01:44:49;1.65;;;0.70;;
45642;SDS011;31358;46.008;11.144;2024-02-21T01:47:15;2.00;;;0.52;;
45642;SDS011;31358;46.008;11.144;2024-02-21T01:49:41;1.48;;;0.60;;
45642;SDS011;31358;46.008;11.144;2024-02-21T01:52:07;1.85;;;1.33;;
45642;SDS011;31358;46.008;11.144;2024-02-21T01:54:33;1.60;;;0.60;;
45642;SDS011;31358;46.008;11.144;2024-02-21T01:56:59;1.60;;;0.82;;
45642;SDS011;31358;46.008;11.144;2024-02-21T01:59:25;3.25;;;1.02;;
45642;SDS011;31358;46.008;11.144;2024-02-21T02:01:51;3.17;;;0.68;;
45642;SDS011;31358;46.008;11.144;2024-02-21T02:04:18;1.15;;;0.50;;
45642;SDS011;31358;46.008;11.144;2024-02-21T02:06:45;1.05;;;0.50;;
45642;SDS011;31358;46.008;11.144;2024-02-21T02:09:11;1.35;;;0.70;;
45642;SDS011;31358;46.008;11.144;2024-02-21T02:11:37;1.40;;;0.60;;
45642;SDS011;31358;46.008;11.144;2024-02-21T02:14:03;1.48;;;0.65;;
45642;SDS011;31358;46.008;11.144;2024-02-21T02:16:28;1.52;;;0.70;;
45642;SDS011;31358;46.008;11.144;2024-02-21T02:18:54;2.33;;;0.80;;
45642;SDS011;31358;46.008;11.144;2024-02-21T02:21:27;1.50;;;0.60;;
45642;SDS011;31358;46.008;11.144;2024-02-21T02:23:59;0.88;;;0.50;;
45642;SDS011;31358;46.008;11.144;2024-02-21T02:26:25;3.60;;;1.00;;
45642;SDS011;31358;46.008;11.144;2024-02-21T02:28:52;1.67;;;0.60;;
45642;SDS011;31358;46.008;11.144;2024-02-21T02:31:18;1.42;;;0.68;;
45642;SDS011;31358;46.008;11.144;2024-02-21T02:33:43;1.80;;;0.75;;
45642;SDS011;31358;46.008;11.144;2024-02-21T02:36:09;1.65;;;0.65;;
45642;SDS011;31358;46.008;11.144;2024-02-21T02:38:35;1.23;;;0.55;;
45642;SDS011;31358;46.008;11.144;2024-02-21T02:41:00;1.45;;;0.70;;
45642;SDS011;31358;46.008;11.144;2024-02-21T02:43:26;1.13;;;0.52;;
45642;SDS011;31358;46.008;11.144;2024-02-21T02:45:52;1.40;;;0.70;;
45642;SDS011;31358;46.008;11.144;2024-02-21T02:48:17;1.20;;;0.45;;
45642;SDS011;31358;46.008;11.144;2024-02-21T02:50:44;3.28;;;0.75;;
45642;SDS011;31358;46.008;11.144;2024-02-21T02:53:11;1.25;;;0.57;;
45642;SDS011;31358;46.008;11.144;2024-02-21T02:55:36;1.23;;;0.60;;
45642;SDS011;31358;46.008;11.144;2024-02-21T02:58:02;1.15;;;0.43;;
45642;SDS011;31358;46.008;11.144;2024-02-21T03:00:28;2.30;;;0.50;;
45642;SDS011;31358;46.008;11.144;2024-02-21T03:02:53;1.45;;;0.52;;
45642;SDS011;31358;46.008;11.144;2024-02-21T03:05:20;1.67;;;0.70;;
45642;SDS011;31358;46.008;11.144;2024-02-21T03:07:47;2.60;;;0.70;;
45642;SDS011;31358;46.008;11.144;2024-02-21T03:10:14;1.52;;;0.68;;
45642;SDS011;31358;46.008;11.144;2024-02-21T03:12:41;1.63;;;0.55;;
45642;SDS011;31358;46.008;11.144;2024-02-21T03:15:07;2.20;;;0.52;;
45642;SDS011;31358;46.008;11.144;2024-02-21T03:17:33;1.27;;;0.60;;
45642;SDS011;31358;46.008;11.144;2024-02-21T03:19:59;0.65;;;0.30;;
45642;SDS011;31358;46.008;11.144;2024-02-21T03:22:26;1.17;;;0.47;;
45642;SDS011;31358;46.008;11.144;2024-02-21T03:24:52;1.90;;;0.50;;
45642;SDS011;31358;46.008;11.144;2024-02-21T03:27:18;1.17;;;0.47;;
45642;SDS011;31358;46.008;11.144;2024-02-21T03:29:44;1.20;;;0.50;;
45642;SDS011;31358;46.008;11.144;2024-02-21T03:32:10;1.63;;;0.60;;
45642;SDS011;31358;46.008;11.144;2024-02-21T03:34:35;1.88;;;0.85;;
45642;SDS011;31358;46.008;11.144;2024-02-21T03:37:01;1.73;;;0.70;;
45642;SDS011;31358;46.008;11.144;2024-02-21T03:39:27;1.35;;;0.55;;
45642;SDS011;31358;46.008;11.144;2024-02-21T03:41:57;1.13;;;0.60;;
45642;SDS011;31358;46.008;11.144;2024-02-21T03:44:23;1.90;;;0.57;;
45642;SDS011;31358;46.008;11.144;2024-02-21T03:46:48;0.82;;;0.32;;
45642;SDS011;31358;46.008;11.144;2024-02-21T03:49:14;2.45;;;0.40;;
45642;SDS011;31358;46.008;11.144;2024-02-21T03:51:40;2.13;;;0.60;;
45642;SDS011;31358;46.008;11.144;2024-02-21T03:54:05;1.15;;;0.47;;
45642;SDS011;31358;46.008;11.144;2024-02-21T03:56:31;0.60;;;0.38;;
45642;SDS011;31358;46.008;11.144;2024-02-21T03:58:56;1.30;;;0.63;;
45642;SDS011;31358;46.008;11.144;2024-02-21T04:01:23;0.82;;;0.38;;
45642;SDS011;31358;46.008;11.144;2024-02-21T04:03:48;2.28;;;0.85;;
45642;SDS011;31358;46.008;11.144;2024-02-21T04:06:14;1.80;;;0.80;;
45642;SDS011;31358;46.008;11.144;2024-02-21T04:08:40;1.17;;;0.60;;
45642;SDS011;31358;46.008;11.144;2024-02-21T04:11:05;2.60;;;0.75;;
45642;SDS011;31358;46.008;11.144;2024-02-21T04:13:31;0.73;;;0.30;;
45642;SDS011;31358;46.008;11.144;2024-02-21T04:15:56;2.63;;;0.60;;
45642;SDS011;31358;46.008;11.144;2024-02-21T04:18:22;1.42;;;0.50;;
45642;SDS011;31358;46.008;11.144;2024-02-21T04:20:48;0.95;;;0.52;;
45642;SDS011;31358;46.008;11.144;2024-02-21T04:23:15;0.85;;;0.30;;
45642;SDS011;31358;46.008;11.144;2024-02-21T04:25:41;1.02;;;0.50;;
45642;SDS011;31358;46.008;11.144;2024-02-21T04:28:06;1.70;;;0.73;;
45642;SDS011;31358;46.008;11.144;2024-02-21T04:30:32;1.08;;;0.50;;
45642;SDS011;31358;46.008;11.144;2024-02-21T04:32:57;2.38;;;0.70;;
45642;SDS011;31358;46.008;11.144;2024-02-21T04:35:23;1.65;;;0.50;;
45642;SDS011;31358;46.008;11.144;2024-02-21T04:37:49;3.33;;;0.70;;
45642;SDS011;31358;46.008;11.144;2024-02-21T04:40:15;0.57;;;0.35;;
45642;SDS011;31358;46.008;11.144;2024-02-21T04:42:41;1.27;;;0.32;;
45642;SDS011;31358;46.008;11.144;2024-02-21T04:45:07;1.35;;;0.60;;
45642;SDS011;31358;46.008;11.144;2024-02-21T04:47:33;1.02;;;0.40;;
45642;SDS011;31358;46.008;11.144;2024-02-21T04:49:59;1.98;;;0.50;;
45642;SDS011;31358;46.008;11.144;2024-02-21T04:52:25;2.33;;;0.57;;
45642;SDS011;31358;46.008;11.144;2024-02-21T04:54:51;2.53;;;0.68;;
45642;SDS011;31358;46.008;11.144;2024-02-21T04:57:17;1.75;;;0.90;;
45642;SDS011;31358;46.008;11.144;2024-02-21T04:59:45;1.27;;;0.60;;
45642;SDS011;31358;46.008;11.144;2024-02-21T05:02:12;2.88;;;0.70;;
45642;SDS011;31358;46.008;11.144;2024-02-21T05:04:39;2.17;;;0.35;;
45642;SDS011;31358;46.008;11.144;2024-02-21T05:07:06;1.80;;;0.60;;
45642;SDS011;31358;46.008;11.144;2024-02-21T05:09:32;2.47;;;0.47;;
45642;SDS011;31358;46.008;11.144;2024-02-21T05:11:58;2.17;;;0.50;;
45642;SDS011;31358;46.008;11.144;2024-02-21T05:14:24;2.17;;;0.60;;
45642;SDS011;31358;46.008;11.144;2024-02-21T05:16:53;1.02;;;0.47;;
45642;SDS011;31358;46.008;11.144;2024-02-21T05:19:19;1.20;;;0.50;;
45642;SDS011;31358;46.008;11.144;2024-02-21T05:21:44;1.65;;;0.55;;
45642;SDS011;31358;46.008;11.144;2024-02-21T05:24:10;0.90;;;0.35;;
45642;SDS011;31358;46.008;11.144;2024-02-21T05:26:36;1.45;;;0.57;;
45642;SDS011;31358;46.008;11.144;2024-02-21T05:29:02;1.73;;;0.52;;
45642;SDS011;31358;46.008;11.144;2024-02-21T05:31:42;0.63;;;0.40;;
45642;SDS011;31358;46.008;11.144;2024-02-21T05:34:20;1.90;;;0.75;;
45642;SDS011;31358;46.008;11.144;2024-02-21T05:36:46;0.88;;;0.40;;
45642;SDS011;31358;46.008;11.144;2024-02-21T05:39:14;1.60;;;0.40;;
45642;SDS011;31358;46.008;11.144;2024-02-21T05:41:41;0.75;;;0.50;;
45642;SDS011;31358;46.008;11.144;2024-02-21T05:44:07;1.83;;;0.65;;
45642;SDS011;31358;46.008;11.144;2024-02-21T05:46:33;1.15;;;0.40;;
45642;SDS011;31358;46.008;11.144;2024-02-21T05:48:59;6.07;;;0.57;;
45642;SDS011;31358;46.008;11.144;2024-02-21T05:51:25;1.23;;;0.40;;
45642;SDS011;31358;46.008;11.144;2024-02-21T05:53:50;1.50;;;0.47;;
45642;SDS011;31358;46.008;11.144;2024-02-21T05:56:16;2.17;;;1.20;;
45642;SDS011;31358;46.008;11.144;2024-02-21T05:58:43;1.48;;;0.40;;
45642;SDS011;31358;46.008;11.144;2024-02-21T06:01:09;0.85;;;0.50;;
45642;SDS011;31358;46.008;11.144;2024-02-21T06:03:35;1.30;;;0.55;;
45642;SDS011;31358;46.008;11.144;2024-02-21T06:06:01;1.65;;;0.80;;
45642;SDS011;31358;46.008;11.144;2024-02-21T06:08:27;3.00;;;0.60;;
45642;SDS011;31358;46.008;11.144;2024-02-21T06:10:53;0.77;;;0.40;;
45642;SDS011;31358;46.008;11.144;2024-02-21T06:13:21;1.52;;;0.30;;
45642;SDS011;31358;46.008;11.144;2024-02-21T06:15:48;1.85;;;0.77;;
45642;SDS011;31358;46.008;11.144;2024-02-21T06:18:15;1.45;;;0.57;;
45642;SDS011;31358;46.008;11.144;2024-02-21T06:20:45;2.40;;;0.50;;
45642;SDS011;31358;46.008;11.144;2024-02-21T06:23:14;2.20;;;0.32;;
45642;SDS011;31358;46.008;11.144;2024-02-21T06:25:42;0.95;;;0.40;;
45642;SDS011;31358;46.008;11.144;2024-02-21T06:28:07;1.52;;;0.65;;
45642;SDS011;31358;46.008;11.144;2024-02-21T06:30:33;2.83;;;0.90;;
45642;SDS011;31358;46.008;11.144;2024-02-21T06:32:59;1.20;;;0.47;;
45642;SDS011;31358;46.008;11.144;2024-02-21T06:35:25;1.92;;;0.50;;
45642;SDS011;31358;46.008;11.144;2024-02-21T06:37:51;1.30;;;0.63;;
45642;SDS011;31358;46.008;11.144;2024-02-21T06:40:21;2.42;;;0.80;;
45642;SDS011;31358;46.008;11.144;2024-02-21T06:42:47;1.88;;;0.80;;
45642;SDS011;31358;46.008;11.144;2024-02-21T06:45:13;2.03;;;0.50;;
45642;SDS011;31358;46.008;11.144;2024-02-21T06:47:39;0.75;;;0.50;;
45642;SDS011;31358;46.008;11.144;2024-02-21T06:50:05;1.23;;;0.60;;
45642;SDS011;31358;46.008;11.144;2024-02-21T06:52:31;1.08;;;0.47;;
45642;SDS011;31358;46.008;11.144;2024-02-21T06:54:56;1.45;;;0.50;;
45642;SDS011;31358;46.008;11.144;2024-02-21T06:57:22;1.20;;;0.68;;
45642;SDS011;31358;46.008;11.144;2024-02-21T06:59:48;2.80;;;0.93;;
45642;SDS011;31358;46.008;11.144;2024-02-21T07:02:13;2.78;;;0.70;;
45642;SDS011;31358;46.008;11.144;2024-02-21T07:04:39;2.08;;;0.75;;
45642;SDS011;31358;46.008;11.144;2024-02-21T07:07:05;2.65;;;0.88;;
45642;SDS011;31358;46.008;11.144;2024-02-21T07:09:30;1.15;;;0.60;;
45642;SDS011;31358;46.008;11.144;2024-02-21T07:11:57;1.30;;;0.50;;
45642;SDS011;31358;46.008;11.144;2024-02-21T07:14:24;0.88;;;0.40;;
45642;SDS011;31358;46.008;11.144;2024-02-21T07:16:50;2.15;;;0.68;;
45642;SDS011;31358;46.008;11.144;2024-02-21T07:19:15;1.98;;;0.80;;
45642;SDS011;31358;46.008;11.144;2024-02-21T07:21:41;2.08;;;0.70;;
45642;SDS011;31358;46.008;11.144;2024-02-21T07:24:07;2.65;;;0.65;;
45642;SDS011;31358;46.008;11.144;2024-02-21T07:26:33;2.33;;;0.77;;
45642;SDS011;31358;46.008;11.144;2024-02-21T07:28:59;2.65;;;1.15;;
45642;SDS011;31358;46.008;11.144;2024-02-21T07:31:25;4.43;;;1.02;;
45642;SDS011;31358;46.008;11.144;2024-02-21T07:33:51;1.95;;;0.70;;
45642;SDS011;31358;46.008;11.144;2024-02-21T07:36:23;1.77;;;0.60;;
45642;SDS011;31358;46.008;11.144;2024-02-21T07:38:58;1.20;;;0.40;;
45642;SDS011;31358;46.008;11.144;2024-02-21T07:41:26;1.83;;;0.55;;
45642;SDS011;31358;46.008;11.144;2024-02-21T07:43:55;1.17;;;0.55;;
45642;SDS011;31358;46.008;11.144;2024-02-21T07:46:21;1.95;;;0.95;;
45642;SDS011;31358;46.008;11.144;2024-02-21T07:48:47;6.97;;;1.90;;
45642;SDS011;31358;46.008;11.144;2024-02-21T07:51:13;1.60;;;0.70;;
45642;SDS011;31358;46.008;11.144;2024-02-21T07:53:39;1.75;;;0.90;;
45642;SDS011;31358;46.008;11.144;2024-02-21T07:56:09;8.13;;;0.88;;
45642;SDS011;31358;46.008;11.144;2024-02-21T07:58:39;2.17;;;0.70;;
45642;SDS011;31358;46.008;11.144;2024-02-21T08:01:05;1.85;;;0.70;;
45642;SDS011;31358;46.008;11.144;2024-02-21T08:03:31;3.80;;;0.52;;
45642;SDS011;31358;46.008;11.144;2024-02-21T08:05:57;1.73;;;0.57;;
45642;SDS011;31358;46.008;11.144;2024-02-21T08:08:22;3.38;;;0.95;;
45642;SDS011;31358;46.008;11.144;2024-02-21T08:10:51;1.77;;;0.70;;
45642;SDS011;31358;46.008;11.144;2024-02-21T08:13:17;1.58;;;0.45;;
45642;SDS011;31358;46.008;11.144;2024-02-21T08:15:43;1.52;;;0.60;;
45642;SDS011;31358;46.008;11.144;2024-02-21T08:18:08;1.85;;;0.70;;
45642;SDS011;31358;46.008;11.144;2024-02-21T08:20:34;1.58;;;0.57;;
45642;SDS011;31358;46.008;11.144;2024-02-21T08:23:00;8.77;;;3.97;;
45642;SDS011;31358;46.008;11.144;2024-02-21T08:25:26;6.50;;;2.38;;
45642;SDS011;31358;46.008;11.144;2024-02-21T08:27:54;3.45;;;1.10;;
45642;SDS011;31358;46.008;11.144;2024-02-21T08:30:22;2.17;;;0.90;;
45642;SDS011;31358;46.008;11.144;2024-02-21T08:32:48;2.03;;;0.73;;
45642;SDS011;31358;46.008;11.144;2024-02-21T08:35:13;4.78;;;1.30;;
45642;SDS011;31358;46.008;11.144;2024-02-21T08:37:39;1.88;;;0.63;;
45642;SDS011;31358;46.008;11.144;2024-02-21T08:40:05;2.10;;;0.70;;
45642;SDS011;31358;46.008;11.144;2024-02-21T08:42:33;1.67;;;0.65;;
45642;SDS011;31358;46.008;11.144;2024-02-21T08:45:03;2.10;;;0.57;;
45642;SDS011;31358;46.008;11.144;2024-02-21T08:47:30;5.63;;;2.10;;
45642;SDS011;31358;46.008;11.144;2024-02-21T08:49:55;3.53;;;1.52;;
45642;SDS011;31358;46.008;11.144;2024-02-21T08:52:21;2.03;;;1.15;;
45642;SDS011;31358;46.008;11.144;2024-02-21T08:54:47;2.83;;;1.20;;
45642;SDS011;31358;46.008;11.144;2024-02-21T08:57:12;1.48;;;0.80;;
45642;SDS011;31358;46.008;11.144;2024-02-21T08:59:41;3.17;;;0.80;;
45642;SDS011;31358;46.008;11.144;2024-02-21T09:02:06;1.85;;;0.90;;
45642;SDS011;31358;46.008;11.144;2024-02-21T09:04:34;4.18;;;0.80;;
45642;SDS011;31358;46.008;11.144;2024-02-21T09:06:59;1.98;;;0.85;;
45642;SDS011;31358;46.008;11.144;2024-02-21T09:09:25;2.70;;;0.93;;
45642;SDS011;31358;46.008;11.144;2024-02-21T09:11:51;2.22;;;0.95;;
45642;SDS011;31358;46.008;11.144;2024-02-21T09:14:17;2.15;;;0.98;;
45642;SDS011;31358;46.008;11.144;2024-02-21T09:16:42;3.05;;;0.75;;
45642;SDS011;31358;46.008;11.144;2024-02-21T09:19:09;2.53;;;1.00;;
45642;SDS011;31358;46.008;11.144;2024-02-21T09:21:36;3.50;;;1.05;;
45642;SDS011;31358;46.008;11.144;2024-02-21T09:24:02;7.22;;;5.70;;
45642;SDS011;31358;46.008;11.144;2024-02-21T09:26:28;5.30;;;3.25;;
45642;SDS011;31358;46.008;11.144;2024-02-21T09:28:54;4.38;;;2.40;;
45642;SDS011;31358;46.008;11.144;2024-02-21T09:31:19;3.88;;;1.70;;
45642;SDS011;31358;46.008;11.144;2024-02-21T09:33:45;2.65;;;1.20;;
45642;SDS011;31358;46.008;11.144;2024-02-21T09:36:10;4.93;;;1.25;;
45642;SDS011;31358;46.008;11.144;2024-02-21T09:38:36;3.58;;;1.20;;
45642;SDS011;31358;46.008;11.144;2024-02-21T09:43:44;4.22;;;1.90;;
45642;SDS011;31358;46.008;11.144;2024-02-21T09:46:16;4.00;;;3.08;;
45642;SDS011;31358;46.008;11.144;2024-02-21T09:53:57;3.92;;;1.42;;
45642;SDS011;31358;46.008;11.144;2024-02-21T09:56:23;2.88;;;1.27;;
45642;SDS011;31358;46.008;11.144;2024-02-21T09:58:48;2.65;;;0.90;;
45642;SDS011;31358;46.008;11.144;2024-02-21T10:01:14;2.13;;;0.70;;
45642;SDS011;31358;46.008;11.144;2024-02-21T10:03:41;2.88;;;1.02;;
45642;SDS011;31358;46.008;11.144;2024-02-21T10:06:08;4.07;;;1.00;;
45642;SDS011;31358;46.008;11.144;2024-02-21T10:08:35;1.95;;;0.90;;
45642;SDS011;31358;46.008;11.144;2024-02-21T10:11:00;2.70;;;1.08;;
45642;SDS011;31358;46.008;11.144;2024-02-21T10:13:28;1.77;;;0.80;;
45642;SDS011;31358;46.008;11.144;2024-02-21T10:16:07;8.90;;;1.13;;
45642;SDS011;31358;46.008;11.144;2024-02-21T10:18:33;3.10;;;1.02;;
45642;SDS011;31358;46.008;11.144;2024-02-21T10:21:00;3.95;;;1.17;;
45642;SDS011;31358;46.008;11.144;2024-02-21T10:23:26;2.03;;;0.93;;
45642;SDS011;31358;46.008;11.144;2024-02-21T10:25:51;2.38;;;0.80;;
45642;SDS011;31358;46.008;11.144;2024-02-21T10:28:17;3.00;;;1.33;;
45642;SDS011;31358;46.008;11.144;2024-02-21T10:30:51;3.45;;;0.90;;
45642;SDS011;31358;46.008;11.144;2024-02-21T10:33:17;2.97;;;0.80;;
45642;SDS011;31358;46.008;11.144;2024-02-21T10:35:45;3.50;;;1.15;;
45642;SDS011;31358;46.008;11.144;2024-02-21T10:38:12;2.45;;;0.98;;
45642;SDS011;31358;46.008;11.144;2024-02-21T10:40:38;3.17;;;0.80;;
45642;SDS011;31358;46.008;11.144;2024-02-21T10:43:03;1.50;;;0.60;;
45642;SDS011;31358;46.008;11.144;2024-02-21T10:45:34;3.53;;;1.58;;
45642;SDS011;31358;46.008;11.144;2024-02-21T10:48:06;3.83;;;1.08;;
45642;SDS011;31358;46.008;11.144;2024-02-21T10:53:40;4.75;;;1.08;;
45642;SDS011;31358;46.008;11.144;2024-02-21T10:56:29;4.25;;;0.65;;
45642;SDS011;31358;46.008;11.144;2024-02-21T10:59:04;2.28;;;1.05;;
45642;SDS011;31358;46.008;11.144;2024-02-21T11:01:31;2.42;;;0.90;;
45642;SDS011;31358;46.008;11.144;2024-02-21T11:04:07;1.38;;;0.60;;
45642;SDS011;31358;46.008;11.144;2024-02-21T11:06:37;2.85;;;0.70;;
45642;SDS011;31358;46.008;11.144;2024-02-21T11:11:34;4.45;;;1.02;;
45642;SDS011;31358;46.008;11.144;2024-02-21T11:14:04;1.65;;;0.80;;
45642;SDS011;31358;46.008;11.144;2024-02-21T11:16:41;2.08;;;0.93;;
45642;SDS011;31358;46.008;11.144;2024-02-21T11:21:50;1.30;;;0.55;;
45642;SDS011;31358;46.008;11.144;2024-02-21T11:24:26;1.60;;;0.50;;
45642;SDS011;31358;46.008;11.144;2024-02-21T11:27:14;1.75;;;0.75;;
45642;SDS011;31358;46.008;11.144;2024-02-21T11:29:44;5.10;;;1.70;;
45642;SDS011;31358;46.008;11.144;2024-02-21T11:32:16;3.40;;;1.10;;
45642;SDS011;31358;46.008;11.144;2024-02-21T11:37:32;4.72;;;1.42;;
45642;SDS011;31358;46.008;11.144;2024-02-21T11:40:02;4.53;;;0.75;;
45642;SDS011;31358;46.008;11.144;2024-02-21T11:42:28;2.63;;;1.00;;
45642;SDS011;31358;46.008;11.144;2024-02-21T11:44:55;3.00;;;1.00;;
45642;SDS011;31358;46.008;11.144;2024-02-21T11:47:24;3.85;;;0.70;;
45642;SDS011;31358;46.008;11.144;2024-02-21T11:49:50;2.33;;;0.85;;
45642;SDS011;31358;46.008;11.144;2024-02-21T11:52:19;2.65;;;0.80;;
45642;SDS011;31358;46.008;11.144;2024-02-21T11:54:47;3.10;;;0.65;;
45642;SDS011;31358;46.008;11.144;2024-02-21T11:57:13;2.05;;;0.80;;
45642;SDS011;31358;46.008;11.144;2024-02-21T11:59:43;2.25;;;0.60;;
45642;SDS011;31358;46.008;11.144;2024-02-21T12:02:10;3.95;;;0.70;;
45642;SDS011;31358;46.008;11.144;2024-02-21T12:04:36;2.92;;;0.70;;
45642;SDS011;31358;46.008;11.144;2024-02-21T12:07:02;2.08;;;0.80;;
45642;SDS011;31358;46.008;11.144;2024-02-21T12:09:29;2.42;;;0.75;;
45642;SDS011;31358;46.008;11.144;2024-02-21T12:12:02;1.58;;;0.50;;
45642;SDS011;31358;46.008;11.144;2024-02-21T12:14:29;2.22;;;0.57;;
45642;SDS011;31358;46.008;11.144;2024-02-21T12:16:56;3.45;;;0.70;;
45642;SDS011;31358;46.008;11.144;2024-02-21T12:19:21;1.65;;;0.68;;
45642;SDS011;31358;46.008;11.144;2024-02-21T12:21:48;1.08;;;0.70;;
45642;SDS011;31358;46.008;11.144;2024-02-21T12:24:22;1.35;;;0.68;;
45642;SDS011;31358;46.008;11.144;2024-02-21T12:26:49;2.15;;;0.55;;
45642;SDS011;31358;46.008;11.144;2024-02-21T12:29:15;3.05;;;0.60;;
45642;SDS011;31358;46.008;11.144;2024-02-21T12:31:41;2.10;;;0.70;;
45642;SDS011;31358;46.008;11.144;2024-02-21T12:34:06;2.38;;;0.68;;
45642;SDS011;31358;46.008;11.144;2024-02-21T12:36:35;2.05;;;0.50;;
45642;SDS011;31358;46.008;11.144;2024-02-21T12:39:05;1.88;;;0.38;;
45642;SDS011;31358;46.008;11.144;2024-02-21T12:41:31;3.42;;;0.73;;
45642;SDS011;31358;46.008;11.144;2024-02-21T12:43:58;1.90;;;0.65;;
45642;SDS011;31358;46.008;11.144;2024-02-21T12:46:23;2.95;;;0.65;;
45642;SDS011;31358;46.008;11.144;2024-02-21T12:48:49;2.95;;;0.52;;
45642;SDS011;31358;46.008;11.144;2024-02-21T12:51:15;3.28;;;0.93;;
45642;SDS011;31358;46.008;11.144;2024-02-21T12:53:45;2.15;;;0.63;;
45642;SDS011;31358;46.008;11.144;2024-02-21T12:56:12;1.17;;;0.40;;
45642;SDS011;31358;46.008;11.144;2024-02-21T12:58:38;0.38;;;0.20;;
45642;SDS011;31358;46.008;11.144;2024-02-21T13:01:04;2.60;;;0.70;;
45642;SDS011;31358;46.008;11.144;2024-02-21T13:03:29;3.50;;;0.60;;
45642;SDS011;31358;46.008;11.144;2024-02-21T13:05:55;0.75;;;0.40;;
45642;SDS011;31358;46.008;11.144;2024-02-21T13:08:21;1.17;;;0.60;;
45642;SDS011;31358;46.008;11.144;2024-02-21T13:10:48;4.18;;;0.70;;
45642;SDS011;31358;46.008;11.144;2024-02-21T13:13:14;1.85;;;0.82;;
45642;SDS011;31358;46.008;11.144;2024-02-21T13:15:40;2.28;;;0.85;;
45642;SDS011;31358;46.008;11.144;2024-02-21T13:18:08;1.60;;;0.70;;
45642;SDS011;31358;46.008;11.144;2024-02-21T13:20:33;2.22;;;0.90;;
45642;SDS011;31358;46.008;11.144;2024-02-21T13:22:59;1.50;;;0.60;;
45642;SDS011;31358;46.008;11.144;2024-02-21T13:25:25;5.38;;;1.13;;
45642;SDS011;31358;46.008;11.144;2024-02-21T13:27:50;3.13;;;1.00;;
45642;SDS011;31358;46.008;11.144;2024-02-21T13:30:16;1.85;;;0.73;;
45642;SDS011;31358;46.008;11.144;2024-02-21T13:32:43;2.10;;;0.65;;
45642;SDS011;31358;46.008;11.144;2024-02-21T13:35:11;2.70;;;0.70;;
45642;SDS011;31358;46.008;11.144;2024-02-21T13:37:40;2.05;;;0.70;;
45642;SDS011;31358;46.008;11.144;2024-02-21T13:40:06;4.05;;;1.00;;
45642;SDS011;31358;46.008;11.144;2024-02-21T13:42:36;2.85;;;1.15;;
45642;SDS011;31358;46.008;11.144;2024-02-21T13:45:03;3.03;;;1.10;;
45642;SDS011;31358;46.008;11.144;2024-02-21T13:47:30;3.13;;;1.27;;
45642;SDS011;31358;46.008;11.144;2024-02-21T13:49:56;4.40;;;1.40;;
45642;SDS011;31358;46.008;11.144;2024-02-21T13:52:22;5.53;;;1.88;;
45642;SDS011;31358;46.008;11.144;2024-02-21T13:54:51;5.28;;;1.85;;
45642;SDS011;31358;46.008;11.144;2024-02-21T13:57:17;4.22;;;1.92;;
45642;SDS011;31358;46.008;11.144;2024-02-21T13:59:42;5.05;;;2.00;;
45642;SDS011;31358;46.008;11.144;2024-02-21T14:02:08;5.63;;;2.28;;
45642;SDS011;31358;46.008;11.144;2024-02-21T14:04:35;4.50;;;1.98;;
45642;SDS011;31358;46.008;11.144;2024-02-21T14:07:01;4.38;;;1.30;;
45642;SDS011;31358;46.008;11.144;2024-02-21T14:09:26;4.82;;;1.90;;
45642;SDS011;31358;46.008;11.144;2024-02-21T14:11:54;4.60;;;1.90;;
45642;SDS011;31358;46.008;11.144;2024-02-21T14:14:20;5.45;;;2.90;;
45642;SDS011;31358;46.008;11.144;2024-02-21T14:16:46;6.80;;;2.80;;
45642;SDS011;31358;46.008;11.144;2024-02-21T14:19:13;7.60;;;3.10;;
45642;SDS011;31358;46.008;11.144;2024-02-21T14:21:39;6.60;;;3.28;;
45642;SDS011;31358;46.008;11.144;2024-02-21T14:24:05;9.68;;;4.57;;
45642;SDS011;31358;46.008;11.144;2024-02-21T14:26:31;6.80;;;3.33;;
45642;SDS011;31358;46.008;11.144;2024-02-21T14:28:57;6.75;;;3.00;;
45642;SDS011;31358;46.008;11.144;2024-02-21T14:31:23;6.30;;;3.40;;
45642;SDS011;31358;46.008;11.144;2024-02-21T14:33:50;6.75;;;3.35;;
45642;SDS011;31358;46.008;11.144;2024-02-21T14:36:16;7.78;;;3.60;;
45642;SDS011;31358;46.008;11.144;2024-02-21T14:38:41;8.80;;;4.72;;
45642;SDS011;31358;46.008;11.144;2024-02-21T14:41:08;8.48;;;4.05;;
45642;SDS011;31358;46.008;11.144;2024-02-21T14:43:37;15.52;;;5.28;;
45642;SDS011;31358;46.008;11.144;2024-02-21T14:46:03;7.68;;;3.70;;
45642;SDS011;31358;46.008;11.144;2024-02-21T14:48:29;8.93;;;4.07;;